createdAt,value
2018-05-10T00:00:31.295Z,86.08
2018-05-10T00:01:10.800Z,86.08
2018-05-10T00:05:36.547Z,86.94
2018-05-10T00:06:13.614Z,85.89
2018-05-10T00:07:13.615Z,86.66
2018-05-10T00:09:45.370Z,85.85
2018-05-10T00:10:45.377Z,85.75
2018-05-10T00:11:45.378Z,85.47
2018-05-10T00:14:17.635Z,85.94
2018-05-10T00:15:17.642Z,85.47
2018-05-10T00:16:17.643Z,85.38
2018-05-10T00:17:19.071Z,85.47
2018-05-10T00:18:18.139Z,85.18
2018-05-10T00:19:18.141Z,85.94
2018-05-10T00:20:18.146Z,86.52
2018-05-10T00:21:18.638Z,87.29
2018-05-10T00:22:42.571Z,87.19
2018-05-10T00:23:18.639Z,87.76
2018-05-10T00:24:18.650Z,87.95
2018-05-10T00:25:19.142Z,88.24
2018-05-10T00:26:19.138Z,87.76
2018-05-10T00:27:19.135Z,87.86
2018-05-10T00:28:40.142Z,87.00
2018-05-10T00:29:19.645Z,86.90
2018-05-10T00:30:19.637Z,87.29
2018-05-10T00:31:19.638Z,87.86
2018-05-10T00:32:19.639Z,87.48
2018-05-10T00:33:41.174Z,87.76
2018-05-10T00:34:20.137Z,86.29
2018-05-10T00:35:20.139Z,85.52
2018-05-10T00:36:20.148Z,84.80
2018-05-10T00:37:20.638Z,84.95
2018-05-10T00:38:20.638Z,84.38
2018-05-10T00:39:20.664Z,85.62
2018-05-10T00:40:20.647Z,86.00
2018-05-10T00:41:21.144Z,86.00
2018-05-10T00:42:21.138Z,85.42
2018-05-10T00:43:21.138Z,85.42
2018-05-10T00:44:21.148Z,85.42
2018-05-10T00:48:24.328Z,87.05
2018-05-10T00:49:24.330Z,87.77
2018-05-10T00:50:24.339Z,87.62
2018-05-10T00:51:24.832Z,87.29
2018-05-10T00:52:24.832Z,88.01
2018-05-10T00:53:24.837Z,87.72
2018-05-10T00:54:24.841Z,87.72
2018-05-10T00:55:25.332Z,87.72
2018-05-10T00:57:56.709Z,87.82
2018-05-10T00:59:17.717Z,87.91
2018-05-10T00:59:56.727Z,87.82
2018-05-10T01:00:56.333Z,87.34
2018-05-10T01:02:18.220Z,87.15
2018-05-10T01:03:18.217Z,86.47
2018-05-10T01:03:56.712Z,86.57
2018-05-10T01:04:57.787Z,87.05
2018-05-10T01:05:59.719Z,87.15
2018-05-10T01:07:18.729Z,86.86
2018-05-10T01:08:18.716Z,86.76
2018-05-10T01:09:19.221Z,86.96
2018-05-10T01:09:58.215Z,87.05
2018-05-10T01:11:19.216Z,87.05
2018-05-10T01:12:20.254Z,86.96
2018-05-10T01:12:59.722Z,86.96
2018-05-10T01:13:58.713Z,88.10
2018-05-10T01:15:19.716Z,87.72
2018-05-10T01:15:58.719Z,87.77
2018-05-10T01:18:30.468Z,86.38
2018-05-10T01:19:30.475Z,86.15
2018-05-10T01:20:52.408Z,85.77
2018-05-10T01:23:04.208Z,85.96
2018-05-10T01:24:23.217Z,85.86
2018-05-10T01:25:03.658Z,85.86
2018-05-10T01:27:33.927Z,86.05
2018-05-10T01:28:54.920Z,86.24
2018-05-10T01:29:33.942Z,87.01
2018-05-10T01:30:56.347Z,87.10
2018-05-10T01:33:05.782Z,86.05
2018-05-10T01:34:26.786Z,85.86
2018-05-10T01:35:05.788Z,86.53
2018-05-10T01:36:06.287Z,86.72
2018-05-10T01:37:29.719Z,85.96
2018-05-10T01:38:27.289Z,86.15
2018-05-10T01:39:06.287Z,86.43
2018-05-10T01:41:59.043Z,85.15
2018-05-10T01:44:09.540Z,86.24
2018-05-10T01:45:09.546Z,86.01
2018-05-10T01:46:09.546Z,86.49
2018-05-10T01:50:12.710Z,86.10
2018-05-10T01:51:33.716Z,86.87
2018-05-10T01:52:12.716Z,87.06
2018-05-10T01:55:05.455Z,87.44
2018-05-10T01:55:44.475Z,88.01
2018-05-10T01:56:44.473Z,87.54
2018-05-10T01:57:44.966Z,87.82
2018-05-10T01:58:44.968Z,87.44
2018-05-10T01:59:44.970Z,88.11
2018-05-10T02:02:16.627Z,87.63
2018-05-10T02:03:16.636Z,87.73
2018-05-10T02:04:17.621Z,87.82
2018-05-10T02:05:17.124Z,87.54
2018-05-10T02:06:17.125Z,88.20
2018-05-10T02:07:17.124Z,88.20
2018-05-10T02:08:17.126Z,87.25
2018-05-10T02:09:17.633Z,86.30
2018-05-10T02:10:19.624Z,85.15
2018-05-10T02:11:17.624Z,85.25
2018-05-10T02:12:17.624Z,85.91
2018-05-10T02:13:18.128Z,85.72
2018-05-10T02:14:18.127Z,85.72
2018-05-10T02:15:18.124Z,86.68
2018-05-10T02:16:18.124Z,86.49
2018-05-10T02:17:18.625Z,86.58
2018-05-10T02:18:18.622Z,86.87
2018-05-10T02:19:18.625Z,86.96
2018-05-10T02:20:18.636Z,87.06
2018-05-10T02:22:50.362Z,86.49
2018-05-10T02:23:50.369Z,86.68
2018-05-10T02:24:50.373Z,85.72
2018-05-10T02:25:52.808Z,85.91
2018-05-10T02:26:50.870Z,85.34
2018-05-10T02:27:50.869Z,85.34
2018-05-10T02:28:50.869Z,85.15
2018-05-10T02:29:50.942Z,85.34
2018-05-10T02:30:51.370Z,85.82
2018-05-10T02:31:51.377Z,85.63
2018-05-10T02:32:51.372Z,86.82
2018-05-10T02:33:51.441Z,86.92
2018-05-10T02:34:51.874Z,87.78
2018-05-10T02:35:51.869Z,87.59
2018-05-10T02:36:51.866Z,86.82
2018-05-10T02:37:51.868Z,86.16
2018-05-10T02:41:55.346Z,85.87
2018-05-10T02:42:55.355Z,85.77
2018-05-10T02:43:54.822Z,86.35
2018-05-10T02:45:18.854Z,86.82
2018-05-10T02:45:55.854Z,87.11
2018-05-10T02:47:09.854Z,87.02
2018-05-10T02:47:55.861Z,86.63
2018-05-10T02:49:18.795Z,86.92
2018-05-10T02:50:23.355Z,86.92
2018-05-10T02:50:56.352Z,87.49
2018-05-10T02:52:02.354Z,87.02
2018-05-10T02:52:56.350Z,86.06
2018-05-10T02:53:58.853Z,85.11
2018-05-10T02:54:56.860Z,84.44
2018-05-10T02:55:56.854Z,85.45
2018-05-10T02:57:17.853Z,86.54
2018-05-10T02:59:28.608Z,88.50
2018-05-10T03:00:49.621Z,87.74
2018-05-10T03:01:28.093Z,88.07
2018-05-10T03:02:28.203Z,87.93
2018-05-10T03:03:29.116Z,88.16
2018-05-10T03:04:29.114Z,88.26
2018-05-10T03:05:29.112Z,88.16
2018-05-10T03:06:30.613Z,88.07
2018-05-10T03:07:52.621Z,88.07
2018-05-10T03:08:29.615Z,87.78
2018-05-10T03:09:29.615Z,87.21
2018-05-10T03:10:57.114Z,87.21
2018-05-10T03:11:30.119Z,87.21
2018-05-10T03:12:30.114Z,87.11
2018-05-10T03:13:30.209Z,87.11
2018-05-10T03:14:30.614Z,86.73
2018-05-10T03:15:31.552Z,87.49
2018-05-10T03:16:30.613Z,87.11
2018-05-10T03:17:30.615Z,87.21
2018-05-10T03:18:30.617Z,87.11
2018-05-10T03:19:31.113Z,87.59
2018-05-10T03:20:53.545Z,87.68
2018-05-10T03:21:31.115Z,86.92
2018-05-10T03:22:32.570Z,86.92
2018-05-10T03:23:31.613Z,87.87
2018-05-10T03:24:53.591Z,87.87
2018-05-10T03:25:38.553Z,87.68
2018-05-10T03:26:54.613Z,88.07
2018-05-10T03:27:35.045Z,87.68
2018-05-10T03:28:34.045Z,87.59
2018-05-10T03:29:32.114Z,87.68
2018-05-10T03:30:53.114Z,87.40
2018-05-10T03:33:25.793Z,87.11
2018-05-10T03:34:03.202Z,87.02
2018-05-10T03:35:03.861Z,87.02
2018-05-10T03:36:06.359Z,87.30
2018-05-10T03:37:25.361Z,87.40
2018-05-10T03:38:04.360Z,88.26
2018-05-10T03:40:35.987Z,87.97
2018-05-10T03:41:37.416Z,87.97
2018-05-10T03:42:35.989Z,87.97
2018-05-10T03:43:57.540Z,87.21
2018-05-10T03:44:56.690Z,87.11
2018-05-10T03:45:57.482Z,87.11
2018-05-10T03:48:10.003Z,87.78
2018-05-10T03:49:09.009Z,87.68
2018-05-10T03:50:08.011Z,88.16
2018-05-10T03:51:29.511Z,87.87
2018-05-10T03:53:39.891Z,87.68
2018-05-10T03:55:00.897Z,88.07
2018-05-10T03:55:39.897Z,88.16
2018-05-10T03:56:40.396Z,87.68
2018-05-10T04:00:44.611Z,87.40
2018-05-10T04:01:44.713Z,87.40
2018-05-10T04:03:07.505Z,87.59
2018-05-10T04:03:45.505Z,87.11
2018-05-10T04:04:45.505Z,87.11
2018-05-10T04:05:53.467Z,86.92
2018-05-10T04:06:46.008Z,86.92
2018-05-10T04:07:46.005Z,87.02
2018-05-10T04:08:46.009Z,87.11
2018-05-10T04:09:46.004Z,87.02
2018-05-10T04:10:45.601Z,87.21
2018-05-10T04:12:07.505Z,87.21
2018-05-10T04:12:52.513Z,87.30
2018-05-10T04:14:10.437Z,87.40
2018-05-10T04:14:48.437Z,87.49
2018-05-10T04:15:48.478Z,87.40
2018-05-10T04:17:09.478Z,87.49
2018-05-10T04:17:47.005Z,87.40
2018-05-10T04:18:47.505Z,87.02
2018-05-10T04:20:08.504Z,86.92
2018-05-10T04:20:47.510Z,87.30
2018-05-10T04:21:48.958Z,86.96
2018-05-10T04:24:40.212Z,87.11
2018-05-10T04:25:18.569Z,86.87
2018-05-10T04:26:41.241Z,86.92
2018-05-10T04:27:40.716Z,87.15
2018-05-10T04:28:40.716Z,87.11
2018-05-10T04:29:19.728Z,87.02
2018-05-10T04:30:19.209Z,87.02
2018-05-10T04:31:42.211Z,87.40
2018-05-10T04:32:22.215Z,87.02
2018-05-10T04:33:42.146Z,87.40
2018-05-10T04:34:41.214Z,87.21
2018-05-10T04:35:29.647Z,86.92
2018-05-10T04:36:20.718Z,86.82
2018-05-10T04:37:20.714Z,86.82
2018-05-10T04:38:20.715Z,86.63
2018-05-10T04:39:21.215Z,86.25
2018-05-10T04:41:54.052Z,86.25
2018-05-10T04:42:52.025Z,87.11
2018-05-10T04:44:15.095Z,87.11
2018-05-10T04:45:07.098Z,86.63
2018-05-10T04:45:59.097Z,87.11
2018-05-10T04:47:14.100Z,87.11
2018-05-10T04:47:52.575Z,87.11
2018-05-10T04:49:14.598Z,86.82
2018-05-10T04:49:55.097Z,86.92
2018-05-10T04:51:01.078Z,86.73
2018-05-10T04:51:53.597Z,86.73
2018-05-10T04:52:54.097Z,87.02
2018-05-10T04:53:54.102Z,87.21
2018-05-10T04:54:54.116Z,86.92
2018-05-10T04:55:54.096Z,87.30
2018-05-10T04:56:57.532Z,87.30
2018-05-10T04:58:21.029Z,86.63
2018-05-10T04:58:55.529Z,87.11
2018-05-10T04:59:58.029Z,87.02
2018-05-10T05:00:55.104Z,87.21
2018-05-10T05:02:16.106Z,86.96
2018-05-10T05:03:16.201Z,87.11
2018-05-10T05:04:16.096Z,87.73
2018-05-10T05:08:18.825Z,87.11
2018-05-10T05:09:20.558Z,87.59
2018-05-10T05:09:58.563Z,87.78
2018-05-10T05:10:58.159Z,87.21
2018-05-10T05:11:59.116Z,87.63
2018-05-10T05:12:59.061Z,87.40
2018-05-10T05:13:59.064Z,87.49
2018-05-10T05:15:20.565Z,87.54
2018-05-10T05:15:58.802Z,87.44
2018-05-10T05:17:00.993Z,87.82
2018-05-10T05:17:59.562Z,87.82
2018-05-10T05:19:21.061Z,87.82
2018-05-10T05:20:14.063Z,87.92
2018-05-10T05:21:00.059Z,88.01
2018-05-10T05:22:00.070Z,87.73
2018-05-10T05:23:00.560Z,88.01
2018-05-10T05:25:31.261Z,87.82
2018-05-10T05:26:31.956Z,88.20
2018-05-10T05:27:31.954Z,88.30
2018-05-10T05:30:03.696Z,88.40
2018-05-10T05:31:03.704Z,88.78
2018-05-10T05:32:03.708Z,88.40
2018-05-10T05:33:04.209Z,88.54
2018-05-10T05:34:25.213Z,88.73
2018-05-10T05:35:04.206Z,88.63
2018-05-10T05:36:04.204Z,88.54
2018-05-10T05:38:35.947Z,88.92
2018-05-10T05:39:35.951Z,88.63
2018-05-10T05:42:07.567Z,88.54
2018-05-10T05:43:09.031Z,90.35
2018-05-10T05:44:07.575Z,90.25
2018-05-10T05:45:07.574Z,91.06
2018-05-10T05:46:30.008Z,91.54
2018-05-10T05:48:42.217Z,90.39
2018-05-10T05:49:43.187Z,90.59
2018-05-10T05:50:40.760Z,90.59
2018-05-10T05:51:42.187Z,90.49
2018-05-10T05:52:41.255Z,90.20
2018-05-10T05:53:41.252Z,90.53
2018-05-10T05:54:41.255Z,90.73
2018-05-10T05:55:43.217Z,90.16
2018-05-10T05:56:41.755Z,89.77
2018-05-10T05:57:41.109Z,89.87
2018-05-10T05:58:41.760Z,89.29
2018-05-10T05:59:42.258Z,89.67
2018-05-10T06:02:15.069Z,90.73
2018-05-10T06:03:13.639Z,90.53
2018-05-10T06:04:28.149Z,90.16
2018-05-10T06:05:14.131Z,90.53
2018-05-10T06:07:52.000Z,90.53
2018-05-10T06:08:46.023Z,90.06
2018-05-10T06:10:08.004Z,90.73
2018-05-10T06:10:46.505Z,90.48
2018-05-10T06:12:07.514Z,90.39
2018-05-10T06:12:46.505Z,90.30
2018-05-10T06:13:46.511Z,90.30
2018-05-10T06:15:08.005Z,90.58
2018-05-10T06:15:47.140Z,90.30
2018-05-10T06:16:47.013Z,89.72
2018-05-10T06:17:47.005Z,89.53
2018-05-10T06:18:46.615Z,89.86
2018-05-10T06:19:47.505Z,89.58
2018-05-10T06:20:47.506Z,88.90
2018-05-10T06:21:47.510Z,89.00
2018-05-10T06:23:09.009Z,89.76
2018-05-10T06:25:19.380Z,88.90
2018-05-10T06:26:19.388Z,89.38
2018-05-10T06:27:40.884Z,89.23
2018-05-10T06:29:51.260Z,88.18
2018-05-10T06:32:22.753Z,89.14
2018-05-10T06:33:22.765Z,89.81
2018-05-10T06:34:22.777Z,89.23
2018-05-10T06:36:54.519Z,90.29
2018-05-10T06:37:56.480Z,90.09
2018-05-10T06:38:54.526Z,90.23
2018-05-10T06:40:09.035Z,90.48
2018-05-10T06:40:55.026Z,90.48
2018-05-10T06:42:16.026Z,90.33
2018-05-10T06:42:55.959Z,89.37
2018-05-10T06:44:16.525Z,89.76
2018-05-10T06:44:55.525Z,90.05
2018-05-10T06:45:55.526Z,88.51
2018-05-10T06:47:16.525Z,88.80
2018-05-10T06:48:03.490Z,88.90
2018-05-10T06:48:56.025Z,88.84
2018-05-10T06:49:56.027Z,89.23
2018-05-10T06:50:56.026Z,88.17
2018-05-10T06:53:27.771Z,89.04
2018-05-10T06:54:27.211Z,89.13
2018-05-10T06:55:27.778Z,89.04
2018-05-10T06:56:27.790Z,88.65
2018-05-10T06:57:28.278Z,88.17
2018-05-10T07:00:59.003Z,86.01
2018-05-10T07:01:59.664Z,85.44
2018-05-10T07:03:00.157Z,86.01
2018-05-10T07:05:31.536Z,87.07
2018-05-10T07:06:31.543Z,87.35
2018-05-10T07:07:31.551Z,86.78
2018-05-10T07:08:33.476Z,87.11
2018-05-10T07:09:32.125Z,85.53
2018-05-10T07:10:32.046Z,85.58
2018-05-10T07:11:32.045Z,86.63
2018-05-10T07:12:52.633Z,87.21
2018-05-10T07:13:32.544Z,86.05
2018-05-10T07:14:32.543Z,86.34
2018-05-10T07:15:33.975Z,86.15
2018-05-10T07:18:04.316Z,85.52
2018-05-10T07:19:04.320Z,84.47
2018-05-10T07:20:04.323Z,83.98
2018-05-10T07:21:04.821Z,83.89
2018-05-10T07:22:04.820Z,84.08
2018-05-10T07:23:04.852Z,83.41
2018-05-10T07:24:04.820Z,83.41
2018-05-10T07:25:05.362Z,82.97
2018-05-10T07:26:04.544Z,83.07
2018-05-10T07:28:36.807Z,82.53
2018-05-10T07:29:36.815Z,82.63
2018-05-10T07:32:08.560Z,80.51
2018-05-10T07:33:08.560Z,80.80
2018-05-10T07:34:08.561Z,79.84
2018-05-10T07:35:09.069Z,79.55
2018-05-10T07:36:15.058Z,79.17
2018-05-10T07:37:09.060Z,78.98
2018-05-10T07:38:11.994Z,79.60
2018-05-10T07:40:40.816Z,78.83
2018-05-10T07:41:41.820Z,78.92
2018-05-10T07:42:40.823Z,78.06
2018-05-10T07:44:02.324Z,77.38
2018-05-10T07:46:12.709Z,76.94
2018-05-10T07:47:12.793Z,77.13
2018-05-10T07:48:12.716Z,77.33
2018-05-10T07:51:05.501Z,77.23
2018-05-10T07:51:46.427Z,78.23
2018-05-10T07:53:05.592Z,76.21
2018-05-10T07:53:44.996Z,76.11
2018-05-10T07:54:44.990Z,74.38
2018-05-10T07:55:44.996Z,74.67
2018-05-10T07:56:44.996Z,74.48
2018-05-10T07:59:16.753Z,74.57
2018-05-10T08:00:22.761Z,73.94
2018-05-10T08:01:16.752Z,73.84
2018-05-10T08:02:19.292Z,74.61
2018-05-10T08:03:18.710Z,73.84
2018-05-10T08:04:17.251Z,73.26
2018-05-10T08:05:17.251Z,74.74
2018-05-10T08:06:17.752Z,74.22
2018-05-10T08:07:40.752Z,73.49
2018-05-10T08:09:49.265Z,73.78
2018-05-10T08:10:50.736Z,73.20
2018-05-10T08:11:49.283Z,74.74
2018-05-10T08:12:49.273Z,71.08
2018-05-10T08:13:51.205Z,72.37
2018-05-10T08:14:49.772Z,73.91
2018-05-10T08:15:49.775Z,75.16
2018-05-10T08:16:49.775Z,74.97
2018-05-10T08:17:52.282Z,75.40
2018-05-10T08:20:44.117Z,73.57
2018-05-10T08:21:23.608Z,71.73
2018-05-10T08:23:53.386Z,70.80
2018-05-10T08:24:53.395Z,67.68
2018-05-10T08:25:53.395Z,68.93
2018-05-10T08:28:46.162Z,70.42
2018-05-10T08:29:25.171Z,66.85
2018-05-10T08:30:25.170Z,68.97
2018-05-10T08:31:24.769Z,69.74
2018-05-10T08:32:52.669Z,68.77
2018-05-10T08:33:25.669Z,69.45
2018-05-10T08:34:25.681Z,68.29
2018-05-10T08:35:47.173Z,69.26
2018-05-10T08:37:58.999Z,65.37
2018-05-10T08:38:57.567Z,65.85
2018-05-10T08:39:57.044Z,68.35
2018-05-10T08:41:00.067Z,67.58
2018-05-10T08:42:00.499Z,67.62
2018-05-10T08:47:32.457Z,70.03
2018-05-10T08:48:55.458Z,67.81
2018-05-10T08:49:32.460Z,66.27
2018-05-10T08:50:33.889Z,66.66
2018-05-10T08:51:32.969Z,65.37
2018-05-10T08:52:53.966Z,66.56
2018-05-10T08:53:32.957Z,66.27
2018-05-10T08:56:25.721Z,64.11
2018-05-10T08:57:04.730Z,65.01
2018-05-10T08:58:04.729Z,65.40
2018-05-10T09:00:57.493Z,68.52
2018-05-10T09:01:42.501Z,62.34
2018-05-10T09:02:36.501Z,61.77
2018-05-10T09:05:08.769Z,67.59
2018-05-10T09:06:08.773Z,67.11
2018-05-10T09:07:08.773Z,62.37
2018-05-10T09:09:40.527Z,62.47
2018-05-10T09:11:00.872Z,62.66
2018-05-10T09:11:40.534Z,60.83
2018-05-10T09:12:41.040Z,60.86
2018-05-10T09:13:41.038Z,62.40
2018-05-10T09:16:12.534Z,61.05
2018-05-10T09:17:12.025Z,60.96
2018-05-10T09:18:13.041Z,64.24
2018-05-10T09:19:14.516Z,64.18
2018-05-10T09:20:27.041Z,62.60
2018-05-10T09:21:13.043Z,60.86
2018-05-10T09:22:36.541Z,61.95
2018-05-10T09:23:36.541Z,60.89
2018-05-10T09:24:34.542Z,63.31
2018-05-10T09:25:15.545Z,60.99
2018-05-10T09:27:45.300Z,60.99
2018-05-10T09:28:45.309Z,60.41
2018-05-10T09:29:45.314Z,60.82
2018-05-10T09:30:45.806Z,61.89
2018-05-10T09:32:12.814Z,63.92
2018-05-10T09:32:45.807Z,60.92
2018-05-10T09:33:45.855Z,62.50
2018-05-10T09:34:46.310Z,61.05
2018-05-10T09:35:48.319Z,60.14
2018-05-10T09:37:07.308Z,61.72
2018-05-10T09:37:46.308Z,63.85
2018-05-10T09:39:07.830Z,64.34
2018-05-10T09:40:07.820Z,58.34
2018-05-10T09:40:46.808Z,57.98
2018-05-10T09:41:46.807Z,56.72
2018-05-10T09:42:53.307Z,57.18
2018-05-10T09:43:47.307Z,56.88
2018-05-10T09:44:47.322Z,57.18
2018-05-10T09:45:47.316Z,55.92
2018-05-10T09:48:19.561Z,57.63
2018-05-10T09:49:19.568Z,57.15
2018-05-10T09:50:40.569Z,58.89
2018-05-10T09:51:20.077Z,59.01
2018-05-10T09:52:42.565Z,59.76
2018-05-10T09:53:20.069Z,59.50
2018-05-10T09:54:20.069Z,60.95
2018-05-10T09:55:41.569Z,58.92
2018-05-10T09:57:51.961Z,58.07
2018-05-10T09:58:51.980Z,57.46
2018-05-10T10:01:26.719Z,55.66
2018-05-10T10:02:23.779Z,55.56
2018-05-10T10:03:44.784Z,56.94
2018-05-10T10:06:16.564Z,56.65
2018-05-10T10:06:55.550Z,56.56
2018-05-10T10:07:55.558Z,57.62
2018-05-10T10:08:56.051Z,56.26
2018-05-10T10:09:56.051Z,57.23
2018-05-10T10:10:56.052Z,54.43
2018-05-10T10:11:56.060Z,55.88
2018-05-10T10:12:57.551Z,57.62
2018-05-10T10:14:17.549Z,55.49
2018-05-10T10:14:56.551Z,55.98
2018-05-10T10:15:56.552Z,55.20
2018-05-10T10:17:18.050Z,54.62
2018-05-10T10:18:18.055Z,52.68
2018-05-10T10:19:18.051Z,53.94
2018-05-10T10:19:57.053Z,53.94
2018-05-10T10:20:57.557Z,57.04
2018-05-10T10:22:18.569Z,55.58
2018-05-10T10:22:57.551Z,54.23
2018-05-10T10:24:00.483Z,54.62
2018-05-10T10:24:58.052Z,55.00
2018-05-10T10:25:58.054Z,57.91
2018-05-10T10:26:58.058Z,57.26
2018-05-10T10:27:58.053Z,59.00
2018-05-10T10:29:19.556Z,55.62
2018-05-10T10:29:58.552Z,55.42
2018-05-10T10:32:30.163Z,50.48
2018-05-10T10:33:30.113Z,52.03
2018-05-10T10:34:52.511Z,52.44
2018-05-10T10:35:50.668Z,53.51
2018-05-10T10:36:30.581Z,53.99
2018-05-10T10:37:36.587Z,52.06
2018-05-10T10:38:30.590Z,51.96
2018-05-10T10:39:54.075Z,52.06
2018-05-10T10:40:54.511Z,52.83
2018-05-10T10:41:52.079Z,51.59
2018-05-10T10:42:31.080Z,53.05
2018-05-10T10:45:02.888Z,53.61
2018-05-10T10:46:02.895Z,52.90
2018-05-10T10:47:02.887Z,55.13
2018-05-10T10:48:03.388Z,54.52
2018-05-10T10:50:34.377Z,55.49
2018-05-10T10:51:56.324Z,56.56
2018-05-10T10:52:35.323Z,55.30
2018-05-10T10:53:35.323Z,55.56
2018-05-10T10:54:35.326Z,53.59
2018-05-10T10:55:35.828Z,53.21
2018-05-10T10:56:35.828Z,55.63
2018-05-10T10:57:35.822Z,55.60
2018-05-10T10:58:35.823Z,56.09
2018-05-10T10:59:57.426Z,55.51
2018-05-10T11:00:57.330Z,57.05
2018-05-10T11:01:36.412Z,57.54
2018-05-10T11:02:36.323Z,55.51
2018-05-10T11:05:08.092Z,54.37
2018-05-10T11:06:08.099Z,54.95
2018-05-10T11:07:08.103Z,54.98
2018-05-10T11:08:10.031Z,55.94
2018-05-10T11:09:08.662Z,55.94
2018-05-10T11:13:11.588Z,56.56
2018-05-10T11:14:12.529Z,56.56
2018-05-10T11:15:11.600Z,57.43
2018-05-10T11:17:43.371Z,53.77
2018-05-10T11:18:43.372Z,52.51
2018-05-10T11:20:04.372Z,54.16
2018-05-10T11:21:04.894Z,55.42
2018-05-10T11:24:46.744Z,53.63
2018-05-10T11:25:52.744Z,51.62
2018-05-10T11:26:46.742Z,49.87
2018-05-10T11:27:53.244Z,52.28
2018-05-10T11:28:47.244Z,52.50
2018-05-10T11:29:47.244Z,50.94
2018-05-10T11:30:47.244Z,51.91
2018-05-10T11:33:19.136Z,51.21
2018-05-10T11:34:19.038Z,49.75
2018-05-10T11:35:19.042Z,49.29
2018-05-10T11:36:19.535Z,51.65
2018-05-10T11:37:18.811Z,49.34
2018-05-10T11:38:19.546Z,49.54
2018-05-10T11:39:20.535Z,47.61
2018-05-10T11:40:20.037Z,46.64
2018-05-10T11:41:34.038Z,47.64
2018-05-10T11:42:20.039Z,45.01
2018-05-10T11:43:20.042Z,45.50
2018-05-10T11:44:20.539Z,45.62
2018-05-10T11:45:20.543Z,44.35
2018-05-10T11:46:43.008Z,43.36
2018-05-10T11:47:20.537Z,43.24
2018-05-10T11:48:22.491Z,45.75
2018-05-10T11:49:22.019Z,47.76
2018-05-10T11:50:21.039Z,47.55
2018-05-10T11:51:21.039Z,47.08
2018-05-10T11:52:44.536Z,47.25
2018-05-10T11:53:42.539Z,45.80
2018-05-10T11:54:21.540Z,46.75
2018-05-10T11:55:23.000Z,49.37
2018-05-10T11:56:23.471Z,49.92
2018-05-10T11:57:23.546Z,49.82
2018-05-10T11:58:22.044Z,51.50
2018-05-10T11:59:43.045Z,49.29
2018-05-10T12:00:22.543Z,45.84
2018-05-10T12:01:29.971Z,47.59
2018-05-10T12:02:28.575Z,45.07
2018-05-10T12:03:22.541Z,47.78
2018-05-10T12:04:24.514Z,47.59
2018-05-10T12:05:23.040Z,46.06
2018-05-10T12:06:29.079Z,47.76
2018-05-10T12:08:54.736Z,41.42
2018-05-10T12:09:56.156Z,43.15
2018-05-10T12:10:54.724Z,45.97
2018-05-10T12:13:26.999Z,44.02
2018-05-10T12:14:27.009Z,44.72
2018-05-10T12:15:41.020Z,45.48
2018-05-10T12:16:26.484Z,44.24
2018-05-10T12:17:27.508Z,44.62
2018-05-10T12:18:48.508Z,45.81
2018-05-10T12:19:27.507Z,45.52
2018-05-10T12:20:29.513Z,44.74
2018-05-10T12:21:30.439Z,45.11
2018-05-10T12:22:49.010Z,46.15
2018-05-10T12:23:28.007Z,48.57
2018-05-10T12:24:29.439Z,47.08
2018-05-10T12:25:28.612Z,45.62
2018-05-10T12:26:31.443Z,45.39
2018-05-10T12:29:01.462Z,49.19
2018-05-10T12:30:01.460Z,50.50
2018-05-10T12:31:06.040Z,51.66
2018-05-10T12:33:54.762Z,51.37
2018-05-10T12:34:52.823Z,51.95
2018-05-10T12:35:31.826Z,50.31
2018-05-10T12:36:53.323Z,49.75
2018-05-10T12:37:52.554Z,49.95
2018-05-10T12:38:53.323Z,49.27
2018-05-10T12:39:53.332Z,49.17
2018-05-10T12:41:00.822Z,49.15
2018-05-10T12:41:38.881Z,49.15
2018-05-10T12:42:32.826Z,52.31
2018-05-10T12:43:32.824Z,51.54
2018-05-10T12:46:04.580Z,52.39
2018-05-10T12:47:04.598Z,52.45
2018-05-10T12:48:05.095Z,54.19
2018-05-10T12:49:04.196Z,53.49
2018-05-10T12:50:26.091Z,53.78
2018-05-10T12:51:05.091Z,54.55
2018-05-10T12:52:05.118Z,54.72
2018-05-10T12:53:05.595Z,55.30
2018-05-10T12:54:05.591Z,55.20
2018-05-10T12:55:05.592Z,55.40
2018-05-10T12:56:05.692Z,56.43
2018-05-10T12:57:27.085Z,56.36
2018-05-10T12:58:06.102Z,55.36
2018-05-10T12:59:06.104Z,54.79
2018-05-10T13:00:26.550Z,56.62
2018-05-10T13:01:06.592Z,57.23
2018-05-10T13:02:06.595Z,57.23
2018-05-10T13:03:12.593Z,56.36
2018-05-10T13:04:06.619Z,55.88
2018-05-10T13:05:07.091Z,55.01
2018-05-10T13:06:06.323Z,55.36
2018-05-10T13:07:07.091Z,56.24
2018-05-10T13:08:07.093Z,57.07
2018-05-10T13:09:07.591Z,57.29
2018-05-10T13:10:07.591Z,58.84
2018-05-10T13:11:07.592Z,58.84
2018-05-10T13:12:07.592Z,57.37
2018-05-10T13:13:09.052Z,57.65
2018-05-10T13:14:28.266Z,58.62
2018-05-10T13:15:08.093Z,58.42
2018-05-10T13:16:08.104Z,58.91
2018-05-10T13:17:08.092Z,59.20
2018-05-10T13:18:08.591Z,60.06
2018-05-10T13:19:08.616Z,60.93
2018-05-10T13:20:08.592Z,59.30
2018-05-10T13:21:08.593Z,59.10
2018-05-10T13:22:32.095Z,59.75
2018-05-10T13:23:09.099Z,59.45
2018-05-10T13:24:09.095Z,59.36
2018-05-10T13:25:09.094Z,59.36
2018-05-10T13:26:09.595Z,60.13
2018-05-10T13:27:36.592Z,60.23
2018-05-10T13:28:09.597Z,59.75
2018-05-10T13:29:09.596Z,60.61
2018-05-10T13:30:31.099Z,61.68
2018-05-10T13:31:11.025Z,62.22
2018-05-10T13:32:10.093Z,61.74
2018-05-10T13:33:31.093Z,61.65
2018-05-10T13:35:42.355Z,63.06
2018-05-10T13:36:42.355Z,63.64
2018-05-10T13:37:42.355Z,64.50
2018-05-10T13:43:16.971Z,66.78
2018-05-10T13:45:16.977Z,69.44
2018-05-10T13:46:40.452Z,70.11
2018-05-10T13:47:17.641Z,70.78
2018-05-10T13:48:38.479Z,72.09
2018-05-10T13:49:31.479Z,72.00
2018-05-10T13:50:38.988Z,73.73
2018-05-10T13:51:17.978Z,74.02
2018-05-10T13:52:17.979Z,74.11
2018-05-10T13:53:17.981Z,73.63
2018-05-10T13:54:18.479Z,74.21
2018-05-10T13:55:20.479Z,72.09
2018-05-10T13:56:18.485Z,74.60
2018-05-10T13:57:18.478Z,75.27
2018-05-10T13:58:18.987Z,76.77
2018-05-10T13:59:24.979Z,76.00
2018-05-10T14:00:32.980Z,77.53
2018-05-10T14:01:18.979Z,78.69
2018-05-10T14:02:19.554Z,79.07
2018-05-10T14:03:20.480Z,78.59
2018-05-10T14:04:18.823Z,78.78
2018-05-10T14:05:19.480Z,78.50
2018-05-10T14:06:19.982Z,77.83
2018-05-10T14:07:19.983Z,75.71
2018-05-10T14:08:19.979Z,75.42
2018-05-10T14:09:19.979Z,76.00
2018-05-10T14:10:20.483Z,76.04
2018-05-10T14:11:20.479Z,73.15
2018-05-10T14:12:40.821Z,70.84
2018-05-10T14:13:20.479Z,71.71
2018-05-10T14:14:20.980Z,72.38
2018-05-10T14:15:41.982Z,72.09
2018-05-10T14:16:20.987Z,72.19
2018-05-10T14:17:20.990Z,70.07
2018-05-10T14:18:41.565Z,70.56
2018-05-10T14:19:21.483Z,70.37
2018-05-10T14:20:27.479Z,73.06
2018-05-10T14:21:21.480Z,74.05
2018-05-10T14:22:22.912Z,72.96
2018-05-10T14:23:21.979Z,70.01
2018-05-10T14:24:21.978Z,67.71
2018-05-10T14:25:22.046Z,67.32
2018-05-10T14:26:43.484Z,67.61
2018-05-10T14:27:24.482Z,68.96
2018-05-10T14:28:43.480Z,68.19
2018-05-10T14:29:22.479Z,66.36
2018-05-10T14:30:23.067Z,65.53
2018-05-10T14:31:22.980Z,66.58
2018-05-10T14:34:15.480Z,65.05
2018-05-10T14:34:54.484Z,66.39
2018-05-10T14:35:54.487Z,66.24
2018-05-10T14:39:57.687Z,66.42
2018-05-10T14:40:57.692Z,66.04
2018-05-10T14:42:18.692Z,65.40
2018-05-10T14:42:58.201Z,65.17
2018-05-10T14:44:19.201Z,63.64
2018-05-10T14:48:22.203Z,63.09
2018-05-10T14:49:01.218Z,62.90
2018-05-10T14:50:01.208Z,63.76
2018-05-10T14:51:06.154Z,65.69
2018-05-10T14:53:33.096Z,65.08
2018-05-10T14:54:33.127Z,65.27
2018-05-10T14:55:33.106Z,66.52
2018-05-10T14:59:58.115Z,64.40
2018-05-10T15:00:58.111Z,64.79
2018-05-10T15:03:30.729Z,63.67
2018-05-10T15:04:08.769Z,64.34
2018-05-10T15:05:08.771Z,63.67
2018-05-10T15:07:46.523Z,62.45
2018-05-10T15:08:40.530Z,62.38
2018-05-10T15:09:40.530Z,61.25
2018-05-10T15:10:43.031Z,59.16
2018-05-10T15:12:02.034Z,57.71
2018-05-10T15:12:41.030Z,58.00
2018-05-10T15:13:41.031Z,60.19
2018-05-10T15:14:41.536Z,60.86
2018-05-10T15:15:41.594Z,61.74
2018-05-10T15:18:13.045Z,62.09
2018-05-10T15:19:13.052Z,61.29
2018-05-10T15:20:13.057Z,61.68
2018-05-10T15:21:36.552Z,63.89
2018-05-10T15:22:36.552Z,63.89
2018-05-10T15:23:13.552Z,61.55
2018-05-10T15:24:13.552Z,62.32
2018-05-10T15:26:46.767Z,65.11
2018-05-10T15:28:12.334Z,65.08
2018-05-10T15:28:45.336Z,65.56
2018-05-10T15:31:07.834Z,64.69